createdAt,value
2023-04-23T00:00:13.996Z,0.00
2023-04-23T00:01:13.980Z,0.00
2023-04-23T00:02:14.002Z,0.00
2023-04-23T00:03:14.108Z,0.00
2023-04-23T00:04:14.192Z,0.00
2023-04-23T00:05:14.042Z,0.00
2023-04-23T00:06:14.003Z,0.00
2023-04-23T00:07:14.002Z,0.00
2023-04-23T00:08:14.006Z,0.00
2023-04-23T00:09:14.002Z,0.00
2023-04-23T00:10:14.028Z,0.00
2023-04-23T00:11:14.020Z,0.00
2023-04-23T00:12:14.002Z,0.00
2023-04-23T00:13:14.024Z,0.00
2023-04-23T00:14:14.007Z,0.00
2023-04-23T00:15:14.067Z,0.00
2023-04-23T00:16:14.048Z,0.00
2023-04-23T00:17:14.024Z,0.00
2023-04-23T00:18:14.027Z,0.00
2023-04-23T00:19:14.024Z,0.00
2023-04-23T00:20:14.024Z,0.00
2023-04-23T00:21:14.124Z,0.00
2023-04-23T00:22:14.034Z,0.00
2023-04-23T00:23:14.044Z,0.00
2023-04-23T00:24:14.034Z,0.00
2023-04-23T00:25:14.031Z,0.00
2023-04-23T00:26:14.045Z,0.00
2023-04-23T00:27:14.036Z,0.00
2023-04-23T00:28:14.056Z,0.00
2023-04-23T00:29:14.041Z,0.00
2023-04-23T00:30:14.046Z,0.00
2023-04-23T00:31:14.110Z,0.00
2023-04-23T00:32:14.050Z,0.00
2023-04-23T00:33:14.075Z,0.00
2023-04-23T00:34:14.061Z,0.00
2023-04-23T00:35:14.067Z,0.00
2023-04-23T00:36:14.112Z,0.00
2023-04-23T00:37:14.080Z,0.00
2023-04-23T00:38:14.062Z,0.00
2023-04-23T00:39:14.064Z,0.00
2023-04-23T00:40:14.064Z,0.00
2023-04-23T00:41:14.086Z,0.00
2023-04-23T00:42:14.091Z,0.00
2023-04-23T00:43:14.100Z,0.00
2023-04-23T00:44:14.092Z,0.00
2023-04-23T00:45:14.101Z,0.00
2023-04-23T00:46:14.115Z,0.00
2023-04-23T00:47:14.107Z,0.00
2023-04-23T00:48:14.097Z,0.00
2023-04-23T00:49:14.101Z,0.00
2023-04-23T00:50:14.091Z,0.00
2023-04-23T00:51:14.108Z,0.00
2023-04-23T00:52:14.095Z,0.00
2023-04-23T00:53:14.097Z,0.00
2023-04-23T00:54:14.098Z,0.00
2023-04-23T00:55:14.097Z,0.00
2023-04-23T00:56:14.103Z,0.00
2023-04-23T00:57:14.110Z,0.00
2023-04-23T00:58:14.117Z,0.00
2023-04-23T00:59:14.112Z,0.00
2023-04-23T01:00:14.134Z,0.00
2023-04-23T01:01:14.301Z,0.00
2023-04-23T01:02:14.147Z,0.00
2023-04-23T01:03:14.369Z,0.00
2023-04-23T01:04:14.220Z,0.00
2023-04-23T01:05:14.131Z,0.00
2023-04-23T01:06:14.179Z,0.00
2023-04-23T01:07:14.136Z,0.00
2023-04-23T01:08:14.131Z,0.00
2023-04-23T01:09:14.131Z,0.00
2023-04-23T01:10:14.134Z,0.00
2023-04-23T01:11:14.144Z,0.00
2023-04-23T01:12:14.144Z,0.00
2023-04-23T01:13:14.153Z,0.00
2023-04-23T01:14:14.160Z,0.00
2023-04-23T01:15:14.147Z,0.00
2023-04-23T01:16:14.148Z,0.00
2023-04-23T01:17:14.154Z,0.00
2023-04-23T01:18:14.158Z,0.00
2023-04-23T01:19:14.178Z,0.00
2023-04-23T01:20:14.170Z,0.00
2023-04-23T01:21:14.160Z,0.00
2023-04-23T01:22:14.167Z,0.00
2023-04-23T01:23:14.165Z,0.00
2023-04-23T01:24:14.168Z,0.00
2023-04-23T01:25:14.170Z,0.00
2023-04-23T01:26:14.174Z,0.00
2023-04-23T01:27:14.175Z,0.00
2023-04-23T01:28:14.174Z,0.00
2023-04-23T01:29:14.192Z,0.00
2023-04-23T01:30:14.184Z,0.00
2023-04-23T01:31:14.218Z,0.00
2023-04-23T01:32:14.197Z,0.00
2023-04-23T01:33:14.193Z,0.00
2023-04-23T01:34:14.190Z,0.00
2023-04-23T01:35:14.228Z,0.00
2023-04-23T01:36:14.199Z,0.00
2023-04-23T01:37:14.199Z,0.00
2023-04-23T01:38:14.200Z,0.00
2023-04-23T01:39:14.202Z,0.00
2023-04-23T01:40:14.207Z,0.00
2023-04-23T01:41:14.207Z,0.00
2023-04-23T01:42:14.208Z,0.00
2023-04-23T01:43:14.213Z,0.00
2023-04-23T01:44:14.224Z,0.00
2023-04-23T01:45:14.226Z,0.00
2023-04-23T01:46:14.275Z,0.00
2023-04-23T01:47:14.236Z,0.00
2023-04-23T01:48:14.239Z,0.00
2023-04-23T01:49:14.214Z,0.00
2023-04-23T01:50:14.232Z,0.00
2023-04-23T01:51:14.249Z,0.00
2023-04-23T01:52:14.232Z,0.00
2023-04-23T01:53:14.231Z,0.00
2023-04-23T01:54:14.233Z,0.00
2023-04-23T01:55:14.242Z,0.00
2023-04-23T01:56:14.239Z,0.00
2023-04-23T01:57:14.245Z,0.00
2023-04-23T01:58:14.244Z,0.00
2023-04-23T01:59:14.245Z,0.00
2023-04-23T02:00:14.256Z,0.00
2023-04-23T02:01:14.275Z,0.00
2023-04-23T02:02:14.309Z,0.00
2023-04-23T02:03:14.365Z,0.00
2023-04-23T02:04:14.453Z,0.00
2023-04-23T02:05:14.273Z,0.00
2023-04-23T02:06:14.260Z,0.00
2023-04-23T02:07:14.282Z,0.00
2023-04-23T02:08:14.259Z,0.00
2023-04-23T02:09:14.268Z,0.00
2023-04-23T02:10:14.281Z,0.00
2023-04-23T02:11:14.271Z,0.00
2023-04-23T02:12:14.278Z,0.00
2023-04-23T02:13:14.277Z,0.00
2023-04-23T02:14:14.289Z,0.00
2023-04-23T02:15:14.283Z,0.00
2023-04-23T02:16:14.318Z,0.00
2023-04-23T02:17:14.282Z,0.00
2023-04-23T02:18:14.283Z,0.00
2023-04-23T02:19:15.999Z,0.00
2023-04-23T02:20:14.287Z,0.00
2023-04-23T02:21:14.292Z,0.00
2023-04-23T02:22:14.293Z,0.00
2023-04-23T02:23:14.317Z,0.00
2023-04-23T02:24:14.302Z,0.00
2023-04-23T02:25:14.298Z,0.00
2023-04-23T02:26:14.324Z,0.00
2023-04-23T02:27:14.309Z,0.00
2023-04-23T02:28:14.303Z,0.00
2023-04-23T02:29:14.306Z,0.00
2023-04-23T02:30:14.314Z,0.00
2023-04-23T02:31:14.327Z,0.00
2023-04-23T02:32:14.312Z,0.00
2023-04-23T02:33:14.345Z,0.00
2023-04-23T02:34:14.318Z,0.00
2023-04-23T02:35:14.320Z,0.00
2023-04-23T02:36:14.324Z,0.00
2023-04-23T02:37:14.324Z,0.00
2023-04-23T02:38:14.325Z,0.00
2023-04-23T02:39:14.367Z,0.00
2023-04-23T02:40:14.326Z,0.00
2023-04-23T02:41:14.328Z,0.00
2023-04-23T02:42:14.334Z,0.00
2023-04-23T02:43:14.338Z,0.00
2023-04-23T02:44:14.337Z,0.00
2023-04-23T02:45:14.339Z,0.00
2023-04-23T02:46:14.372Z,0.00
2023-04-23T02:47:14.336Z,0.00
2023-04-23T02:48:14.347Z,0.00
2023-04-23T02:49:14.347Z,0.00
2023-04-23T02:50:14.357Z,0.00
2023-04-23T02:51:14.349Z,0.00
2023-04-23T02:52:14.355Z,0.00
2023-04-23T02:53:14.352Z,0.00
2023-04-23T02:54:14.357Z,0.00
2023-04-23T02:55:14.383Z,0.00
2023-04-23T02:56:14.361Z,0.00
2023-04-23T02:57:14.372Z,0.00
2023-04-23T02:58:14.363Z,0.00
2023-04-23T02:59:14.367Z,0.00
2023-04-23T03:00:14.369Z,0.00
2023-04-23T03:01:14.377Z,0.00
2023-04-23T03:02:14.439Z,0.00
2023-04-23T03:03:14.558Z,0.00
2023-04-23T03:04:14.477Z,0.00
2023-04-23T03:05:14.380Z,0.00
2023-04-23T03:06:14.378Z,0.00
2023-04-23T03:07:14.382Z,0.00
2023-04-23T03:08:14.684Z,0.00
2023-04-23T03:09:14.385Z,0.00
2023-04-23T03:10:14.395Z,0.00
2023-04-23T03:11:14.416Z,4.00
2023-04-23T03:12:14.392Z,4.00
2023-04-23T03:13:14.394Z,4.00
2023-04-23T03:14:14.395Z,4.00
2023-04-23T03:15:14.391Z,4.00
2023-04-23T03:16:14.449Z,4.00
2023-04-23T03:17:14.399Z,4.00
2023-04-23T03:18:14.404Z,4.00
2023-04-23T03:19:14.406Z,4.00
2023-04-23T03:20:14.413Z,4.00
2023-04-23T03:21:14.414Z,0.00
2023-04-23T03:22:14.416Z,0.00
2023-04-23T03:23:14.421Z,0.00
2023-04-23T03:24:14.417Z,0.00
2023-04-23T03:25:14.423Z,0.00
2023-04-23T03:26:14.425Z,0.00
2023-04-23T03:27:14.447Z,0.00
2023-04-23T03:28:14.427Z,0.00
2023-04-23T03:29:14.437Z,0.00
2023-04-23T03:30:14.427Z,0.00
2023-04-23T03:31:14.463Z,0.00
2023-04-23T03:32:14.436Z,0.00
2023-04-23T03:33:14.594Z,0.00
2023-04-23T03:34:14.437Z,0.00
2023-04-23T03:35:14.439Z,0.00
2023-04-23T03:36:14.441Z,0.00
2023-04-23T03:37:14.454Z,4.00
2023-04-23T03:38:14.445Z,4.00
2023-04-23T03:39:14.461Z,4.00
2023-04-23T03:40:14.460Z,4.00
2023-04-23T03:41:14.457Z,4.00
2023-04-23T03:42:14.454Z,4.00
2023-04-23T03:43:14.474Z,4.00
2023-04-23T03:44:14.457Z,4.00
2023-04-23T03:45:14.474Z,4.00
2023-04-23T03:46:14.487Z,4.00
2023-04-23T03:47:14.462Z,4.00
2023-04-23T03:48:14.470Z,4.00
2023-04-23T03:49:14.475Z,4.00
2023-04-23T03:50:14.488Z,4.00
2023-04-23T03:51:14.477Z,4.00
2023-04-23T03:52:14.480Z,4.00
2023-04-23T03:53:14.475Z,4.00
2023-04-23T03:54:14.479Z,4.00
2023-04-23T03:55:14.532Z,4.00
2023-04-23T03:56:14.491Z,4.00
2023-04-23T03:57:14.490Z,0.00
2023-04-23T03:58:14.490Z,0.00
2023-04-23T03:59:14.520Z,0.00
2023-04-23T04:00:14.498Z,0.00
2023-04-23T04:01:14.501Z,0.00
2023-04-23T04:02:14.557Z,0.00
2023-04-23T04:03:14.770Z,4.00
2023-04-23T04:04:14.820Z,4.00
2023-04-23T04:05:14.646Z,4.00
2023-04-23T04:06:14.506Z,4.00
2023-04-23T04:07:14.509Z,4.00
2023-04-23T04:08:14.573Z,4.00
2023-04-23T04:09:14.517Z,4.00
2023-04-23T04:10:14.523Z,4.00
2023-04-23T04:11:14.519Z,4.00
2023-04-23T04:12:14.520Z,4.00
2023-04-23T04:13:14.512Z,4.00
2023-04-23T04:14:14.519Z,4.00
2023-04-23T04:15:14.555Z,0.00
2023-04-23T04:16:14.554Z,0.00
2023-04-23T04:17:14.522Z,4.00
2023-04-23T04:18:14.533Z,4.00
2023-04-23T04:19:14.536Z,4.00
2023-04-23T04:20:14.625Z,4.00
2023-04-23T04:21:14.539Z,4.00
2023-04-23T04:22:14.543Z,4.00
2023-04-23T04:23:14.539Z,4.00
2023-04-23T04:24:14.556Z,4.00
2023-04-23T04:25:14.556Z,4.00
2023-04-23T04:26:14.542Z,4.00
2023-04-23T04:27:14.559Z,4.00
2023-04-23T04:28:14.573Z,4.00
2023-04-23T04:29:14.550Z,4.00
2023-04-23T04:30:14.559Z,8.00
2023-04-23T04:31:14.596Z,4.00
2023-04-23T04:32:14.557Z,4.00
2023-04-23T04:33:14.561Z,4.00
2023-04-23T04:34:14.571Z,4.00
2023-04-23T04:35:14.622Z,4.00
2023-04-23T04:36:14.582Z,4.00
2023-04-23T04:37:14.565Z,4.00
2023-04-23T04:38:14.614Z,4.00
2023-04-23T04:39:14.566Z,4.00
2023-04-23T04:40:14.580Z,4.00
2023-04-23T04:41:14.568Z,4.00
2023-04-23T04:42:14.571Z,4.00
2023-04-23T04:43:14.577Z,4.00
2023-04-23T04:44:14.582Z,4.00
2023-04-23T04:45:14.583Z,4.00
2023-04-23T04:46:14.596Z,4.00
2023-04-23T04:47:14.607Z,4.00
2023-04-23T04:48:14.599Z,4.00
2023-04-23T04:49:14.590Z,4.00
2023-04-23T04:50:14.591Z,4.00
2023-04-23T04:51:14.586Z,8.00
2023-04-23T04:52:14.594Z,8.00
2023-04-23T04:53:14.662Z,8.00
2023-04-23T04:54:14.602Z,8.00
2023-04-23T04:55:14.598Z,8.00
2023-04-23T04:56:14.605Z,8.00
2023-04-23T04:57:14.604Z,4.00
2023-04-23T04:58:14.755Z,4.00
2023-04-23T04:59:14.604Z,4.00
2023-04-23T05:00:14.613Z,4.00
2023-04-23T05:01:14.672Z,4.00
2023-04-23T05:02:14.739Z,4.00
2023-04-23T05:03:14.823Z,4.00
2023-04-23T05:04:14.813Z,4.00
2023-04-23T05:05:14.629Z,4.00
2023-04-23T05:06:14.623Z,4.00
2023-04-23T05:07:14.628Z,4.00
2023-04-23T05:08:14.629Z,4.00
2023-04-23T05:09:14.628Z,4.00
2023-04-23T05:10:14.632Z,4.00
2023-04-23T05:11:14.640Z,4.00
2023-04-23T05:12:14.632Z,4.00
2023-04-23T05:13:14.634Z,4.00
2023-04-23T05:14:14.641Z,4.00
2023-04-23T05:15:14.644Z,4.00
2023-04-23T05:16:14.668Z,4.00
2023-04-23T05:17:14.640Z,4.00
2023-04-23T05:18:14.672Z,4.00
2023-04-23T05:19:14.755Z,4.00
2023-04-23T05:20:14.709Z,4.00
2023-04-23T05:21:14.676Z,4.00
2023-04-23T05:22:14.655Z,4.00
2023-04-23T05:23:14.715Z,4.00
2023-04-23T05:24:14.662Z,4.00
2023-04-23T05:25:14.670Z,4.00
2023-04-23T05:26:14.677Z,4.00
2023-04-23T05:27:14.666Z,4.00
2023-04-23T05:28:14.689Z,4.00
2023-04-23T05:29:14.671Z,8.00
2023-04-23T05:30:14.683Z,4.00
2023-04-23T05:31:14.680Z,4.00
2023-04-23T05:32:14.700Z,8.00
2023-04-23T05:33:14.726Z,8.00
2023-04-23T05:34:14.685Z,4.00
2023-04-23T05:35:14.708Z,4.00
2023-04-23T05:36:14.690Z,8.00
2023-04-23T05:37:14.681Z,8.00
2023-04-23T05:38:14.694Z,8.00
2023-04-23T05:39:14.688Z,8.00
2023-04-23T05:40:14.690Z,4.00
2023-04-23T05:41:14.690Z,4.00
2023-04-23T05:42:14.687Z,8.00
2023-04-23T05:43:14.775Z,8.00
2023-04-23T05:44:14.717Z,8.00
2023-04-23T05:45:14.706Z,8.00
2023-04-23T05:46:14.727Z,8.00
2023-04-23T05:47:14.706Z,4.00
2023-04-23T05:48:14.698Z,4.00
2023-04-23T05:49:14.701Z,4.00
2023-04-23T05:50:14.711Z,4.00
2023-04-23T05:51:14.731Z,4.00
2023-04-23T05:52:14.716Z,20.00
2023-04-23T05:53:14.714Z,20.00
2023-04-23T05:54:14.710Z,20.00
2023-04-23T05:55:14.713Z,20.00
2023-04-23T05:56:14.734Z,20.00
2023-04-23T05:57:14.744Z,20.00
2023-04-23T05:58:14.717Z,20.00
2023-04-23T05:59:14.718Z,20.00
2023-04-23T06:00:14.733Z,20.00
2023-04-23T06:01:14.733Z,20.00
2023-04-23T06:02:14.835Z,20.00
2023-04-23T06:03:15.063Z,20.00
2023-04-23T06:04:14.911Z,20.00
2023-04-23T06:05:15.042Z,20.00
2023-04-23T06:06:14.733Z,20.00
2023-04-23T06:07:14.760Z,20.00
2023-04-23T06:08:14.740Z,20.00
2023-04-23T06:09:14.743Z,20.00
2023-04-23T06:10:14.758Z,24.00
2023-04-23T06:11:14.750Z,20.00
2023-04-23T06:12:14.753Z,20.00
2023-04-23T06:13:14.764Z,20.00
2023-04-23T06:14:14.748Z,24.00
2023-04-23T06:15:14.779Z,24.00
2023-04-23T06:16:14.776Z,20.00
2023-04-23T06:17:14.760Z,20.00
2023-04-23T06:18:14.868Z,24.00
2023-04-23T06:19:14.761Z,24.00
2023-04-23T06:20:14.765Z,24.00
2023-04-23T06:21:14.762Z,24.00
2023-04-23T06:22:14.763Z,24.00
2023-04-23T06:23:14.786Z,24.00
2023-04-23T06:24:14.778Z,24.00
2023-04-23T06:25:14.770Z,24.00
2023-04-23T06:26:14.798Z,24.00
2023-04-23T06:27:14.780Z,24.00
2023-04-23T06:28:14.778Z,24.00
2023-04-23T06:29:14.778Z,24.00
2023-04-23T06:30:14.781Z,24.00
2023-04-23T06:31:14.823Z,24.00
2023-04-23T06:32:14.790Z,24.00
2023-04-23T06:33:14.786Z,24.00
2023-04-23T06:34:14.792Z,20.00
2023-04-23T06:35:14.795Z,24.00
2023-04-23T06:36:14.823Z,28.00
2023-04-23T06:37:14.806Z,24.00
2023-04-23T06:38:14.903Z,24.00
2023-04-23T06:39:14.894Z,24.00
2023-04-23T06:40:14.804Z,24.00
2023-04-23T06:41:14.802Z,24.00
2023-04-23T06:42:14.802Z,24.00
2023-04-23T06:43:14.818Z,24.00
2023-04-23T06:44:14.809Z,24.00
2023-04-23T06:45:14.811Z,24.00
2023-04-23T06:46:14.807Z,24.00
2023-04-23T06:47:14.825Z,24.00
2023-04-23T06:48:14.874Z,28.00
2023-04-23T06:49:14.823Z,28.00
2023-04-23T06:50:14.825Z,28.00
2023-04-23T06:51:14.836Z,24.00
2023-04-23T06:52:14.826Z,24.00
2023-04-23T06:53:14.827Z,24.00
2023-04-23T06:54:14.824Z,28.00
2023-04-23T06:55:14.866Z,28.00
2023-04-23T06:56:14.836Z,32.00
2023-04-23T06:57:14.835Z,32.00
2023-04-23T06:58:16.073Z,32.00
2023-04-23T06:59:14.838Z,28.00
2023-04-23T07:00:14.845Z,28.00
2023-04-23T07:01:14.861Z,32.00
2023-04-23T07:02:14.874Z,28.00
2023-04-23T07:03:15.096Z,32.00
2023-04-23T07:04:14.884Z,32.00
2023-04-23T07:05:14.862Z,28.00
2023-04-23T07:06:14.864Z,28.00
2023-04-23T07:07:14.890Z,28.00
2023-04-23T07:08:14.869Z,28.00
2023-04-23T07:09:14.884Z,32.00
2023-04-23T07:10:16.916Z,32.00
2023-04-23T07:11:14.911Z,32.00
2023-04-23T07:12:14.898Z,32.00
2023-04-23T07:13:14.880Z,32.00
2023-04-23T07:14:14.900Z,28.00
2023-04-23T07:15:14.892Z,28.00
2023-04-23T07:16:14.906Z,28.00
2023-04-23T07:17:14.898Z,32.00
2023-04-23T07:18:14.894Z,32.00
2023-04-23T07:19:14.920Z,32.00
2023-04-23T07:20:14.919Z,32.00
2023-04-23T07:21:14.902Z,28.00
2023-04-23T07:22:14.910Z,32.00
2023-04-23T07:23:14.969Z,32.00
2023-04-23T07:24:14.916Z,32.00
2023-04-23T07:25:14.913Z,32.00
2023-04-23T07:26:14.919Z,32.00
2023-04-23T07:27:14.953Z,36.00
2023-04-23T07:28:14.923Z,32.00
2023-04-23T07:29:14.929Z,36.00
2023-04-23T07:30:14.931Z,36.00
2023-04-23T07:31:14.942Z,36.00
2023-04-23T07:32:14.974Z,36.00
2023-04-23T07:33:14.978Z,36.00
2023-04-23T07:34:14.953Z,36.00
2023-04-23T07:35:14.947Z,36.00
2023-04-23T07:36:14.943Z,36.00
2023-04-23T07:37:15.165Z,36.00
2023-04-23T07:38:14.939Z,36.00
2023-04-23T07:39:14.959Z,36.00
2023-04-23T07:40:14.954Z,36.00
2023-04-23T07:41:14.959Z,36.00
2023-04-23T07:42:14.965Z,36.00
2023-04-23T07:43:14.979Z,36.00
2023-04-23T07:44:14.978Z,36.00
2023-04-23T07:45:14.961Z,36.00
2023-04-23T07:46:14.992Z,36.00
2023-04-23T07:47:14.968Z,40.00
2023-04-23T07:48:14.974Z,36.00
2023-04-23T07:49:14.977Z,36.00
2023-04-23T07:50:14.991Z,40.00
2023-04-23T07:51:14.972Z,40.00
2023-04-23T07:52:14.978Z,36.00
2023-04-23T07:53:14.976Z,40.00
2023-04-23T07:54:14.983Z,40.00
2023-04-23T07:55:14.991Z,40.00
2023-04-23T07:56:14.992Z,44.00
2023-04-23T07:57:14.992Z,40.00
2023-04-23T07:58:14.991Z,40.00
2023-04-23T07:59:15.022Z,44.00
2023-04-23T08:00:15.005Z,44.00
2023-04-23T08:01:14.993Z,44.00
2023-04-23T08:02:15.099Z,44.00
2023-04-23T08:03:15.375Z,48.00
2023-04-23T08:04:15.213Z,48.00
2023-04-23T08:05:15.077Z,48.00
2023-04-23T08:06:15.012Z,52.00
2023-04-23T08:07:15.017Z,52.00
2023-04-23T08:08:15.008Z,52.00
2023-04-23T08:09:15.019Z,52.00
2023-04-23T08:10:15.018Z,52.00
2023-04-23T08:11:15.037Z,52.00
2023-04-23T08:12:15.024Z,52.00
2023-04-23T08:13:15.028Z,52.00
2023-04-23T08:14:15.027Z,44.00
2023-04-23T08:15:15.048Z,48.00
2023-04-23T08:16:15.036Z,48.00
2023-04-23T08:17:15.031Z,48.00
2023-04-23T08:18:15.030Z,48.00
2023-04-23T08:19:15.046Z,48.00
2023-04-23T08:20:15.041Z,48.00
2023-04-23T08:21:15.042Z,48.00
2023-04-23T08:22:15.037Z,52.00
2023-04-23T08:23:15.040Z,52.00
2023-04-23T08:24:15.045Z,52.00
2023-04-23T08:25:15.048Z,52.00
2023-04-23T08:26:15.052Z,52.00
2023-04-23T08:27:15.047Z,52.00
2023-04-23T08:28:15.051Z,56.00
2023-04-23T08:29:15.057Z,56.00
2023-04-23T08:30:15.094Z,56.00
2023-04-23T08:31:25.805Z,56.00
2023-04-23T08:32:15.130Z,60.00
2023-04-23T08:33:15.072Z,60.00
2023-04-23T08:34:15.067Z,60.00
2023-04-23T08:35:15.076Z,64.00
2023-04-23T08:36:15.065Z,64.00
2023-04-23T08:37:27.075Z,64.00
2023-04-23T08:38:15.079Z,64.00
2023-04-23T08:39:15.072Z,64.00
2023-04-23T08:40:15.080Z,68.00
2023-04-23T08:41:15.073Z,68.00
2023-04-23T08:42:15.078Z,68.00
2023-04-23T08:43:15.081Z,72.00
2023-04-23T08:44:15.098Z,72.00
2023-04-23T08:45:15.100Z,72.00
2023-04-23T08:46:15.095Z,72.00
2023-04-23T08:47:15.110Z,76.00
2023-04-23T08:48:15.093Z,76.00
2023-04-23T08:49:15.097Z,76.00
2023-04-23T08:50:15.106Z,84.00
2023-04-23T08:51:15.095Z,84.00
2023-04-23T08:52:15.104Z,92.00
2023-04-23T08:53:15.104Z,96.00
2023-04-23T08:54:15.104Z,100.00
2023-04-23T08:55:15.172Z,112.00
2023-04-23T08:56:15.120Z,120.00
2023-04-23T08:57:15.109Z,132.00
2023-04-23T08:58:15.119Z,140.00
2023-04-23T08:59:15.112Z,144.00
2023-04-23T09:00:15.125Z,144.00
2023-04-23T09:01:15.159Z,140.00
2023-04-23T09:02:15.133Z,124.00
2023-04-23T09:03:15.234Z,116.00
2023-04-23T09:04:15.124Z,112.00
2023-04-23T09:05:15.134Z,112.00
2023-04-23T09:06:15.131Z,116.00
2023-04-23T09:07:15.141Z,116.00
2023-04-23T09:08:15.142Z,124.00
2023-04-23T09:09:15.139Z,128.00
2023-04-23T09:10:18.294Z,124.00
2023-04-23T09:11:15.151Z,124.00
2023-04-23T09:12:15.145Z,128.00
2023-04-23T09:13:15.146Z,132.00
2023-04-23T09:14:15.162Z,132.00
2023-04-23T09:15:15.157Z,132.00
2023-04-23T09:16:15.161Z,136.00
2023-04-23T09:17:15.159Z,136.00
2023-04-23T09:18:15.158Z,136.00
2023-04-23T09:19:15.187Z,132.00
2023-04-23T09:20:15.299Z,136.00
2023-04-23T09:21:15.168Z,136.00
2023-04-23T09:22:15.177Z,136.00
2023-04-23T09:23:15.174Z,136.00
2023-04-23T09:24:15.174Z,140.00
2023-04-23T09:25:15.178Z,148.00
2023-04-23T09:26:15.186Z,208.00
2023-04-23T09:27:15.187Z,352.00
2023-04-23T09:28:15.190Z,556.00
2023-04-23T09:29:15.256Z,600.00
2023-04-23T09:30:15.205Z,1052.00
2023-04-23T09:31:15.210Z,1348.00
2023-04-23T09:32:15.210Z,1636.00
2023-04-23T09:33:15.198Z,1916.00
2023-04-23T09:34:15.204Z,2152.00
2023-04-23T09:35:15.500Z,2328.00
2023-04-23T09:36:15.212Z,2448.00
2023-04-23T09:37:15.198Z,2560.00
2023-04-23T09:38:15.213Z,2604.00
2023-04-23T09:39:15.210Z,2616.00
2023-04-23T09:40:15.219Z,2600.00
2023-04-23T09:41:15.233Z,2512.00
2023-04-23T09:42:15.221Z,2396.00
2023-04-23T09:43:15.236Z,2248.00
2023-04-23T09:44:15.242Z,2092.00
2023-04-23T09:45:15.242Z,1936.00
2023-04-23T09:46:15.315Z,1780.00
2023-04-23T09:47:15.275Z,1660.00
2023-04-23T09:48:15.280Z,1564.00
2023-04-23T09:49:15.283Z,1520.00
2023-04-23T09:50:15.296Z,1480.00
2023-04-23T09:51:15.337Z,1464.00
2023-04-23T09:52:15.313Z,1460.00
2023-04-23T09:53:15.307Z,1452.00
2023-04-23T09:54:15.321Z,1460.00
2023-04-23T09:55:15.332Z,1460.00
2023-04-23T09:56:15.340Z,1468.00
2023-04-23T09:57:15.347Z,1496.00
2023-04-23T09:58:15.419Z,1544.00
2023-04-23T09:59:15.360Z,1600.00
2023-04-23T10:00:15.719Z,1636.00
2023-04-23T10:01:15.511Z,1636.00
2023-04-23T10:02:15.532Z,1588.00
2023-04-23T10:03:15.491Z,1512.00
2023-04-23T10:04:15.592Z,1404.00
2023-04-23T10:06:25.774Z,1192.00
2023-04-23T10:07:19.889Z,116.00
2023-04-23T10:08:15.421Z,928.00
2023-04-23T10:09:15.442Z,836.00
2023-04-23T10:10:15.436Z,688.00
2023-04-23T10:13:15.449Z,548.00
2023-04-23T10:14:15.457Z,500.00
2023-04-23T10:15:15.456Z,464.00
2023-04-23T10:16:23.206Z,440.00
2023-04-23T10:17:15.472Z,408.00
2023-04-23T10:18:15.477Z,360.00
2023-04-23T10:19:15.532Z,328.00
2023-04-23T10:20:15.505Z,308.00
2023-04-23T10:21:15.497Z,296.00
2023-04-23T10:22:19.004Z,276.00
2023-04-23T10:23:15.525Z,256.00
2023-04-23T10:24:15.507Z,240.00
2023-04-23T10:25:15.509Z,216.00
2023-04-23T10:26:15.525Z,196.00
2023-04-23T10:27:28.410Z,184.00
2023-04-23T10:28:15.527Z,176.00
2023-04-23T10:29:15.581Z,172.00
2023-04-23T10:30:15.529Z,168.00
2023-04-23T10:31:15.569Z,168.00
2023-04-23T10:32:15.544Z,168.00
2023-04-23T10:33:28.665Z,164.00
2023-04-23T10:34:15.560Z,164.00
2023-04-23T10:35:15.560Z,164.00
2023-04-23T10:36:15.567Z,160.00
2023-04-23T10:37:15.564Z,160.00
2023-04-23T10:38:15.569Z,164.00
2023-04-23T10:39:21.046Z,164.00
2023-04-23T10:40:15.580Z,160.00
2023-04-23T10:41:15.574Z,164.00
2023-04-23T10:42:15.593Z,160.00
2023-04-23T10:43:15.597Z,160.00
2023-04-23T10:44:16.205Z,160.00
2023-04-23T10:45:23.315Z,160.00
2023-04-23T10:46:15.631Z,156.00
2023-04-23T10:47:15.597Z,156.00
2023-04-23T10:48:15.605Z,160.00
2023-04-23T10:49:15.610Z,156.00
2023-04-23T10:50:15.632Z,156.00
2023-04-23T10:51:58.869Z,156.00
2023-04-23T10:52:20.730Z,156.00
2023-04-23T10:53:15.624Z,156.00
2023-04-23T10:54:15.652Z,156.00
2023-04-23T10:55:15.650Z,152.00
2023-04-23T10:56:15.636Z,156.00
2023-04-23T10:57:15.634Z,156.00
2023-04-23T10:58:15.632Z,152.00
2023-04-23T10:59:15.641Z,152.00
2023-04-23T11:00:15.695Z,148.00
2023-04-23T11:01:15.644Z,152.00
2023-04-23T11:02:15.745Z,148.00
2023-04-23T11:03:15.726Z,144.00
2023-04-23T11:04:15.877Z,144.00
2023-04-23T11:05:15.662Z,144.00
2023-04-23T11:06:15.826Z,144.00
2023-04-23T11:07:15.669Z,144.00
2023-04-23T11:08:19.828Z,144.00
2023-04-23T11:09:15.783Z,140.00
2023-04-23T11:10:15.738Z,140.00
2023-04-23T11:11:15.710Z,140.00
2023-04-23T11:12:15.691Z,140.00
2023-04-23T11:13:15.683Z,140.00
2023-04-23T11:14:15.809Z,136.00
2023-04-23T11:15:15.711Z,136.00
2023-04-23T11:16:15.804Z,140.00
2023-04-23T11:17:15.706Z,136.00
2023-04-23T11:18:15.711Z,136.00
2023-04-23T11:19:17.318Z,136.00
2023-04-23T11:20:15.718Z,136.00
2023-04-23T11:21:15.722Z,132.00
2023-04-23T11:22:15.725Z,132.00
2023-04-23T11:23:15.726Z,136.00
2023-04-23T11:24:15.734Z,136.00
2023-04-23T11:25:15.770Z,132.00
2023-04-23T11:26:15.738Z,132.00
2023-04-23T11:27:15.773Z,128.00
2023-04-23T11:28:15.743Z,132.00
2023-04-23T11:29:16.025Z,128.00
2023-04-23T11:30:15.762Z,132.00
2023-04-23T11:31:15.758Z,132.00
2023-04-23T11:32:15.790Z,128.00
2023-04-23T11:33:15.794Z,128.00
2023-04-23T11:34:15.771Z,128.00
2023-04-23T11:35:15.767Z,128.00
2023-04-23T11:36:15.770Z,128.00
2023-04-23T11:37:15.782Z,128.00
2023-04-23T11:38:15.789Z,112.00
2023-04-23T11:39:15.795Z,132.00
2023-04-23T11:40:15.796Z,128.00
2023-04-23T11:41:15.787Z,132.00
2023-04-23T11:42:15.837Z,132.00
2023-04-23T11:43:15.821Z,132.00
2023-04-23T11:44:15.795Z,132.00
2023-04-23T11:45:15.816Z,132.00
2023-04-23T11:46:15.937Z,132.00
2023-04-23T11:47:15.825Z,132.00
2023-04-23T11:48:15.820Z,128.00
2023-04-23T11:49:15.822Z,132.00
2023-04-23T11:50:15.829Z,132.00
2023-04-23T11:51:15.833Z,132.00
2023-04-23T11:52:15.847Z,132.00
2023-04-23T11:53:15.831Z,132.00
2023-04-23T11:54:15.837Z,132.00
2023-04-23T11:55:15.840Z,132.00
2023-04-23T11:56:15.850Z,132.00
2023-04-23T11:57:15.848Z,132.00
2023-04-23T11:58:15.851Z,132.00
2023-04-23T11:59:15.875Z,132.00
2023-04-23T12:00:15.860Z,132.00
2023-04-23T12:01:15.871Z,132.00
2023-04-23T12:02:15.924Z,136.00
2023-04-23T12:03:15.970Z,132.00
2023-04-23T12:04:16.229Z,136.00
2023-04-23T12:05:15.906Z,132.00
2023-04-23T12:06:15.882Z,132.00
2023-04-23T12:07:25.815Z,132.00
2023-04-23T12:08:15.888Z,132.00
2023-04-23T12:09:15.897Z,132.00
2023-04-23T12:10:16.645Z,128.00
2023-04-23T12:11:15.905Z,132.00
2023-04-23T12:12:15.902Z,68.00
2023-04-23T12:13:15.923Z,128.00
2023-04-23T12:14:15.931Z,128.00
2023-04-23T12:15:15.939Z,128.00
2023-04-23T12:16:15.970Z,128.00
2023-04-23T12:17:15.919Z,124.00
2023-04-23T12:18:15.925Z,124.00
2023-04-23T12:19:16.101Z,120.00
2023-04-23T12:20:15.931Z,124.00
2023-04-23T12:21:15.935Z,120.00
2023-04-23T12:22:15.955Z,120.00
2023-04-23T12:23:15.946Z,116.00
2023-04-23T12:24:16.252Z,116.00
2023-04-23T12:25:15.957Z,116.00
2023-04-23T12:26:16.025Z,112.00
2023-04-23T12:27:16.119Z,112.00
2023-04-23T12:28:15.965Z,108.00
2023-04-23T12:29:15.962Z,108.00
2023-04-23T12:30:15.980Z,108.00
2023-04-23T12:31:16.009Z,108.00
2023-04-23T12:32:15.984Z,104.00
2023-04-23T12:33:15.988Z,104.00
2023-04-23T12:34:15.995Z,104.00
2023-04-23T12:35:15.989Z,100.00
2023-04-23T12:36:15.997Z,100.00
2023-04-23T12:37:15.992Z,100.00
2023-04-23T12:38:16.010Z,100.00
2023-04-23T12:39:16.007Z,96.00
2023-04-23T12:40:16.025Z,92.00
2023-04-23T12:41:16.008Z,96.00
2023-04-23T12:42:16.012Z,92.00
2023-04-23T12:43:16.025Z,92.00
2023-04-23T12:44:16.024Z,88.00
2023-04-23T12:45:16.033Z,88.00
2023-04-23T12:46:16.062Z,88.00
2023-04-23T12:47:16.062Z,84.00
2023-04-23T12:48:16.059Z,84.00
2023-04-23T12:49:16.051Z,80.00
2023-04-23T12:50:16.054Z,80.00
2023-04-23T12:51:16.046Z,76.00
2023-04-23T12:52:16.058Z,72.00
2023-04-23T12:53:16.059Z,72.00
2023-04-23T12:54:16.061Z,72.00
2023-04-23T12:55:16.057Z,68.00
2023-04-23T12:56:16.076Z,64.00
2023-04-23T12:57:16.069Z,60.00
2023-04-23T12:58:16.067Z,60.00